createdAt,value
2022-09-05T00:02:49.776Z,0.88
2022-09-05T00:06:02.308Z,0.77
2022-09-05T00:09:02.845Z,0.95
2022-09-05T00:16:00.425Z,0.60
2022-09-05T00:24:17.017Z,0.80
2022-09-05T00:24:25.895Z,0.55
2022-09-05T00:26:18.388Z,0.80
2022-09-05T00:29:39.655Z,0.80
2022-09-05T00:33:17.174Z,0.70
2022-09-05T00:36:27.423Z,0.75
2022-09-05T00:39:22.858Z,0.60
2022-09-05T00:42:15.283Z,0.77
2022-09-05T00:45:07.027Z,0.82
2022-09-05T00:48:25.355Z,0.90
2022-09-05T00:51:39.535Z,0.70
2022-09-05T00:54:51.482Z,0.80
2022-09-05T00:58:02.160Z,0.70
2022-09-05T01:00:55.099Z,0.90
2022-09-05T01:04:05.925Z,0.63
2022-09-05T01:07:29.839Z,0.60
2022-09-05T01:10:30.056Z,0.70
2022-09-05T01:13:36.824Z,0.80
2022-09-05T01:16:33.474Z,0.90
2022-09-05T01:19:39.282Z,1.08
2022-09-05T01:22:57.593Z,0.65
2022-09-05T01:26:23.175Z,0.90
2022-09-05T01:29:26.604Z,1.23
2022-09-05T01:32:30.358Z,0.80
2022-09-05T01:36:03.679Z,0.93
2022-09-05T01:40:11.606Z,0.82
2022-09-05T01:42:33.345Z,0.73
2022-09-05T01:45:39.288Z,1.00
2022-09-05T01:48:44.514Z,0.80
2022-09-05T01:51:48.187Z,1.02
2022-09-05T01:54:54.189Z,0.70
2022-09-05T01:57:52.970Z,0.95
2022-09-05T02:00:51.732Z,0.80
2022-09-05T02:03:45.639Z,0.73
2022-09-05T02:06:44.206Z,0.90
2022-09-05T02:10:07.824Z,0.80
2022-09-05T02:13:04.847Z,0.80
2022-09-05T02:16:05.314Z,0.70
2022-09-05T02:19:01.604Z,0.90
2022-09-05T02:22:02.677Z,1.00
2022-09-05T02:24:59.818Z,0.70
2022-09-05T02:28:14.666Z,0.73
2022-09-05T02:31:20.087Z,0.90
2022-09-05T02:34:17.110Z,0.90
2022-09-05T02:37:13.740Z,0.80
2022-09-05T02:45:01.506Z,0.80
2022-09-05T02:45:13.412Z,0.77
2022-09-05T02:46:56.873Z,0.70
2022-09-05T02:53:15.948Z,0.65
2022-09-05T02:57:35.413Z,0.85
2022-09-05T02:58:04.133Z,0.90
2022-09-05T03:00:13.814Z,1.00
2022-09-05T03:03:35.042Z,0.60
2022-09-05T03:06:35.988Z,0.90
2022-09-05T03:09:45.124Z,0.90
2022-09-05T03:13:54.498Z,1.10
2022-09-05T03:17:30.366Z,1.00
2022-09-05T03:20:54.144Z,0.80
2022-09-05T03:24:21.660Z,1.10
2022-09-05T03:28:04.634Z,0.80
2022-09-05T03:31:22.647Z,1.02
2022-09-05T03:35:08.675Z,0.82
2022-09-05T03:38:34.050Z,1.48
2022-09-05T03:41:45.581Z,0.90
2022-09-05T03:44:58.280Z,1.00
2022-09-05T03:48:28.799Z,0.80
2022-09-05T03:57:12.028Z,0.80
2022-09-05T03:57:18.917Z,0.85
2022-09-05T03:59:25.870Z,0.90
2022-09-05T04:05:46.945Z,0.95
2022-09-05T04:08:11.203Z,0.93
2022-09-05T04:08:55.064Z,1.15
2022-09-05T04:11:48.526Z,1.10
2022-09-05T04:14:47.452Z,0.98
2022-09-05T04:17:43.770Z,1.08
2022-09-05T04:20:43.938Z,1.10
2022-09-05T04:23:44.218Z,1.33
2022-09-05T04:27:17.930Z,0.90
2022-09-05T04:30:39.462Z,1.00
2022-09-05T04:33:37.330Z,1.10
2022-09-05T04:36:29.981Z,1.40
2022-09-05T04:39:29.202Z,1.02
2022-09-05T04:42:25.371Z,0.93
2022-09-05T04:45:24.120Z,1.67
2022-09-05T04:48:20.130Z,1.45
2022-09-05T04:51:13.170Z,1.15
2022-09-05T04:54:27.568Z,0.77
2022-09-05T04:57:30.785Z,1.17
2022-09-05T05:05:06.333Z,0.90
2022-09-05T05:06:12.049Z,0.95
2022-09-05T05:06:55.896Z,1.00
2022-09-05T05:10:55.435Z,0.98
2022-09-05T05:18:02.721Z,0.82
2022-09-05T05:18:09.264Z,1.00
2022-09-05T05:19:47.361Z,0.90
2022-09-05T05:23:07.526Z,0.90
2022-09-05T05:26:01.020Z,1.10
2022-09-05T05:28:59.703Z,0.98
2022-09-05T05:31:53.230Z,1.15
2022-09-05T05:34:48.674Z,1.10
2022-09-05T05:37:43.990Z,1.10
2022-09-05T05:40:40.977Z,1.27
2022-09-05T05:43:46.235Z,0.95
2022-09-05T05:46:40.751Z,1.10
2022-09-05T05:49:55.114Z,0.90
2022-09-05T05:53:41.054Z,0.80
2022-09-05T05:56:53.461Z,1.10
2022-09-05T06:00:06.436Z,1.17
2022-09-05T06:03:43.958Z,1.17
2022-09-05T06:07:02.108Z,0.65
2022-09-05T06:14:49.079Z,1.05
2022-09-05T06:14:56.460Z,0.80
2022-09-05T06:18:16.750Z,1.10
2022-09-05T06:22:11.674Z,0.82
2022-09-05T06:25:50.468Z,1.00
2022-09-05T06:28:58.268Z,0.90
2022-09-05T06:32:05.331Z,1.13
2022-09-05T06:35:23.616Z,0.80
2022-09-05T06:38:44.593Z,0.88
2022-09-05T06:41:49.800Z,0.80
2022-09-05T06:45:27.527Z,0.80
2022-09-05T06:48:33.651Z,1.00
2022-09-05T06:52:28.175Z,0.90
2022-09-05T06:55:57.597Z,0.98
2022-09-05T06:59:40.521Z,0.90
2022-09-05T07:02:58.155Z,0.80
2022-09-05T07:05:55.944Z,0.70
2022-09-05T07:08:51.990Z,0.75
2022-09-05T07:11:57.005Z,0.82
2022-09-05T07:14:59.177Z,0.80
2022-09-05T07:18:11.066Z,0.82
2022-09-05T07:21:18.304Z,0.90
2022-09-05T07:24:32.645Z,0.73
2022-09-05T07:28:01.515Z,0.77
2022-09-05T07:30:51.346Z,0.90
2022-09-05T07:33:41.094Z,0.88
2022-09-05T07:36:40.799Z,0.90
2022-09-05T07:39:35.573Z,0.70
2022-09-05T07:42:31.463Z,0.70
2022-09-05T07:45:26.214Z,0.75
2022-09-05T07:48:22.329Z,0.63
2022-09-05T07:56:17.165Z,0.60
2022-09-05T07:56:56.542Z,0.73
2022-09-05T07:57:51.971Z,0.70
2022-09-05T08:00:45.352Z,1.30
2022-09-05T08:03:34.018Z,0.93
2022-09-05T08:07:20.185Z,0.60
2022-09-05T08:10:05.617Z,0.50
2022-09-05T08:13:24.193Z,0.73
2022-09-05T08:16:13.049Z,0.57
2022-09-05T08:19:33.349Z,0.60
2022-09-05T08:22:26.161Z,0.60
2022-09-05T08:25:20.131Z,0.52
2022-09-05T08:28:20.496Z,0.60
2022-09-05T08:31:18.314Z,0.50
2022-09-05T08:34:12.825Z,0.35
2022-09-05T08:37:02.601Z,0.45
2022-09-05T08:39:54.268Z,0.50
2022-09-05T08:46:37.832Z,0.60
2022-09-05T08:46:43.475Z,0.60
2022-09-05T08:49:55.781Z,0.45
2022-09-05T08:52:59.760Z,0.50
2022-09-05T08:55:58.120Z,0.43
2022-09-05T08:59:28.349Z,0.50
2022-09-05T09:03:04.266Z,0.65
2022-09-05T09:06:26.814Z,0.93
2022-09-05T09:09:30.113Z,0.40
2022-09-05T09:12:52.678Z,0.40
2022-09-05T09:15:46.157Z,0.40
2022-09-05T09:19:03.901Z,0.40
2022-09-05T09:22:09.510Z,0.50
2022-09-05T09:25:14.534Z,0.90
2022-09-05T09:28:50.419Z,0.40
2022-09-05T09:32:00.929Z,0.40
2022-09-05T09:35:05.507Z,0.50
2022-09-05T09:38:32.135Z,0.50
2022-09-05T09:41:45.424Z,0.50
2022-09-05T09:45:22.908Z,0.40
2022-09-05T09:49:00.423Z,0.60
2022-09-05T09:52:38.745Z,0.50
2022-09-05T09:56:19.635Z,0.70
2022-09-05T09:59:54.144Z,0.40
2022-09-05T10:06:49.552Z,0.68
2022-09-05T10:10:45.728Z,0.40
2022-09-05T10:11:42.702Z,0.40
2022-09-05T10:15:02.607Z,0.20
2022-09-05T10:18:47.611Z,0.30
2022-09-05T10:25:44.607Z,0.30
2022-09-05T10:28:41.046Z,0.22
2022-09-05T10:35:05.253Z,0.35
2022-09-05T10:35:23.769Z,0.32
2022-09-05T10:38:17.942Z,0.43
2022-09-05T10:41:21.006Z,0.40
2022-09-05T10:44:14.494Z,0.50
2022-09-05T10:47:32.682Z,0.30
2022-09-05T10:50:29.885Z,0.50
2022-09-05T10:53:39.716Z,0.50
2022-09-05T10:56:39.801Z,0.40
2022-09-05T11:02:20.212Z,0.40
2022-09-05T11:02:47.531Z,0.35
2022-09-05T11:05:40.001Z,0.40
2022-09-05T11:08:41.711Z,0.30
2022-09-05T11:11:34.620Z,0.52
2022-09-05T11:14:43.776Z,0.40
2022-09-05T11:17:40.904Z,0.40
2022-09-05T11:20:50.808Z,0.40
2022-09-05T11:23:56.808Z,0.77
2022-09-05T11:27:24.545Z,0.60
2022-09-05T11:30:07.104Z,0.40
2022-09-05T11:35:55.710Z,0.40
2022-09-05T11:39:59.338Z,0.45
2022-09-05T11:40:54.910Z,0.70
2022-09-05T11:44:25.042Z,0.70
2022-09-05T11:47:44.815Z,0.50
2022-09-05T11:51:06.254Z,0.50
2022-09-05T11:54:58.049Z,0.52
2022-09-05T12:40:04.988Z,0.40
2022-09-05T13:03:09.274Z,0.57
2022-09-05T13:03:28.572Z,0.57
2022-09-05T13:06:25.784Z,0.40
2022-09-05T13:09:29.411Z,0.60
2022-09-05T13:14:58.991Z,0.70
2022-09-05T13:15:53.429Z,0.40
2022-09-05T13:18:44.635Z,0.40
2022-09-05T13:21:33.120Z,0.65
2022-09-05T13:24:30.761Z,0.70
2022-09-05T13:27:26.904Z,0.60
2022-09-05T13:32:30.973Z,0.50
2022-09-05T13:38:05.478Z,0.65
2022-09-05T13:38:16.418Z,0.52
2022-09-05T13:40:04.797Z,0.47
2022-09-05T13:43:08.088Z,0.50
2022-09-05T13:46:11.693Z,0.55
2022-09-05T13:49:29.370Z,0.60
2022-09-05T13:52:30.810Z,0.75
2022-09-05T13:55:26.419Z,0.60
2022-09-05T13:58:29.208Z,0.57
2022-09-05T14:02:25.746Z,0.57
2022-09-05T14:05:28.133Z,0.57
2022-09-05T14:08:44.135Z,0.60
2022-09-05T14:11:58.947Z,0.70
2022-09-05T14:15:09.706Z,0.40
2022-09-05T14:18:22.351Z,0.60
2022-09-05T14:21:17.360Z,0.40
2022-09-05T14:24:14.498Z,0.40
2022-09-05T14:27:14.796Z,0.50
2022-09-05T14:29:49.759Z,0.65
2022-09-05T14:37:39.150Z,0.43
2022-09-05T14:37:52.008Z,0.30
2022-09-05T14:39:25.773Z,0.50
2022-09-05T14:42:23.998Z,0.40
2022-09-05T14:45:30.663Z,0.65
2022-09-05T14:48:50.226Z,0.90
2022-09-05T14:51:45.403Z,0.60
2022-09-05T15:00:14.486Z,0.65
2022-09-05T15:02:54.501Z,0.63
2022-09-05T15:03:11.256Z,0.70
2022-09-05T15:05:50.274Z,0.70
2022-09-05T15:11:18.220Z,0.70
2022-09-05T15:12:20.729Z,0.73
2022-09-05T15:14:13.948Z,0.60
2022-09-05T15:16:59.956Z,0.50
2022-09-05T15:20:05.646Z,0.55
2022-09-05T15:22:41.839Z,0.63
2022-09-05T15:25:21.467Z,0.60
2022-09-05T15:27:52.934Z,0.50
2022-09-05T15:30:33.368Z,0.57
2022-09-05T15:33:25.558Z,0.32
2022-09-05T15:35:56.014Z,0.70
2022-09-05T15:38:30.002Z,0.73
2022-09-05T15:41:11.481Z,0.45
2022-09-05T15:43:58.342Z,0.50
2022-09-05T15:46:46.300Z,0.50
2022-09-05T15:49:29.295Z,0.80
2022-09-05T15:52:02.155Z,0.68
2022-09-05T15:54:37.798Z,0.50
2022-09-05T15:57:17.576Z,0.90
2022-09-05T15:59:55.182Z,0.70
2022-09-05T16:02:29.340Z,0.73
2022-09-05T16:10:29.443Z,0.77
2022-09-05T16:10:39.106Z,0.52
2022-09-05T16:12:13.756Z,0.60
2022-09-05T16:14:36.486Z,0.60
2022-09-05T16:23:14.208Z,0.70
2022-09-05T16:23:17.634Z,0.70
2022-09-05T16:23:39.305Z,0.30
2022-09-05T16:26:13.223Z,0.63
2022-09-05T16:28:52.858Z,0.70
2022-09-05T16:31:33.077Z,0.68
2022-09-05T16:34:10.413Z,0.70
2022-09-05T16:37:05.149Z,0.60
2022-09-05T16:39:45.105Z,0.60
2022-09-05T16:42:22.153Z,0.70
2022-09-05T16:45:00.338Z,0.75
2022-09-05T16:47:36.990Z,0.80
2022-09-05T16:50:23.946Z,0.50
2022-09-05T16:53:30.281Z,0.50
2022-09-05T16:56:04.831Z,0.45
2022-09-05T16:58:39.845Z,0.63
2022-09-05T17:01:37.413Z,0.50
2022-09-05T17:04:16.524Z,0.50
2022-09-05T17:06:57.141Z,0.70
2022-09-05T17:09:28.500Z,0.75
2022-09-05T17:12:02.095Z,0.70
2022-09-05T17:14:37.895Z,0.80
2022-09-05T17:17:23.473Z,0.80
2022-09-05T17:20:14.717Z,0.63
2022-09-05T17:27:31.814Z,0.82
2022-09-05T17:29:30.091Z,0.90
2022-09-05T17:29:34.491Z,0.70
2022-09-05T17:32:06.161Z,0.80
2022-09-05T17:34:58.819Z,1.13
2022-09-05T17:38:28.439Z,2.05
2022-09-05T17:41:43.259Z,0.82
2022-09-05T17:44:21.958Z,1.00
2022-09-05T17:47:10.243Z,1.02
2022-09-05T17:49:46.519Z,0.98
2022-09-05T17:52:24.636Z,0.85
2022-09-05T17:54:56.696Z,0.90
2022-09-05T17:57:45.230Z,0.77
2022-09-05T18:01:07.617Z,1.13
2022-09-05T18:04:16.311Z,1.27
2022-09-05T18:06:59.983Z,0.90
2022-09-05T18:10:15.377Z,1.00
2022-09-05T18:13:12.817Z,0.70
2022-09-05T18:16:14.367Z,1.30
2022-09-05T18:19:32.038Z,1.10
2022-09-05T18:21:51.498Z,1.30
2022-09-05T18:24:37.546Z,1.50
2022-09-05T18:27:37.803Z,1.20
2022-09-05T18:33:53.854Z,1.42
2022-09-05T18:36:35.896Z,1.20
2022-09-05T18:40:03.961Z,1.30
2022-09-05T18:42:39.297Z,1.60
2022-09-05T18:45:16.364Z,1.40
2022-09-05T18:47:53.269Z,1.30
2022-09-05T18:50:32.542Z,1.30
2022-09-05T18:53:10.507Z,1.30
2022-09-05T18:56:13.599Z,1.17
2022-09-05T18:59:09.648Z,0.93
2022-09-05T19:01:49.863Z,1.52
2022-09-05T19:04:38.983Z,1.60
2022-09-05T19:07:15.270Z,1.23
2022-09-05T19:10:36.139Z,1.10
2022-09-05T19:12:59.217Z,1.42
2022-09-05T19:15:36.372Z,1.52
2022-09-05T19:18:26.199Z,1.50
2022-09-05T19:21:12.075Z,1.10
2022-09-05T19:23:55.046Z,1.30
2022-09-05T19:26:25.753Z,1.60
2022-09-05T19:33:14.307Z,0.90
2022-09-05T19:36:53.189Z,1.55
2022-09-05T19:37:05.476Z,1.45
2022-09-05T19:37:43.011Z,1.48
2022-09-05T19:45:36.765Z,1.60
2022-09-05T19:47:35.530Z,1.25
2022-09-05T19:47:43.283Z,1.52
2022-09-05T19:49:09.301Z,1.27
2022-09-05T19:51:41.108Z,1.48
2022-09-05T19:54:26.573Z,1.60
2022-09-05T19:57:01.756Z,1.50
2022-09-05T19:59:38.200Z,1.27
2022-09-05T20:02:11.878Z,1.73
2022-09-05T20:04:52.987Z,1.55
2022-09-05T20:07:24.992Z,1.52
2022-09-05T20:09:56.207Z,1.50
2022-09-05T20:12:31.613Z,1.70
2022-09-05T20:15:21.691Z,1.42
2022-09-05T20:17:52.235Z,1.40
2022-09-05T20:20:25.987Z,1.40
2022-09-05T20:23:02.913Z,1.30
2022-09-05T20:25:39.676Z,1.48
2022-09-05T20:28:12.678Z,1.20
2022-09-05T20:30:44.748Z,1.60
2022-09-05T20:33:23.929Z,1.48
2022-09-05T20:42:09.286Z,1.23
2022-09-05T20:43:22.463Z,1.40
2022-09-05T20:43:30.426Z,1.52
2022-09-05T20:44:42.275Z,1.40
2022-09-05T20:54:05.957Z,1.40
2022-09-05T20:54:17.838Z,1.35
2022-09-05T20:54:22.372Z,1.65
2022-09-05T20:56:22.700Z,1.60
2022-09-05T20:58:55.702Z,1.60
2022-09-05T21:01:24.943Z,1.77
2022-09-05T21:03:57.711Z,1.63
2022-09-05T21:06:33.522Z,1.70
2022-09-05T21:09:29.390Z,1.95
2022-09-05T21:12:06.000Z,1.58
2022-09-05T21:14:37.612Z,1.70
2022-09-05T21:17:15.159Z,1.45
2022-09-05T21:19:53.998Z,1.58
2022-09-05T21:22:32.792Z,1.70
2022-09-05T21:25:23.354Z,1.30
2022-09-05T21:28:02.144Z,1.60
2022-09-05T21:30:34.244Z,1.65
2022-09-05T21:33:12.945Z,1.88
2022-09-05T21:35:51.938Z,1.58
2022-09-05T21:38:32.677Z,1.50
2022-09-05T21:41:04.624Z,1.40
2022-09-05T21:47:45.067Z,1.75
2022-09-05T21:47:51.326Z,1.70
2022-09-05T21:49:18.970Z,1.55
2022-09-05T21:51:50.348Z,1.88
2022-09-05T21:59:16.154Z,1.63
2022-09-05T21:59:16.627Z,1.60
2022-09-05T22:00:16.267Z,1.90
2022-09-05T22:02:49.059Z,1.63
2022-09-05T22:05:20.233Z,1.70
2022-09-05T22:07:53.381Z,1.67
2022-09-05T22:10:23.231Z,2.13
2022-09-05T22:13:08.502Z,1.60
2022-09-05T22:15:39.133Z,1.85
2022-09-05T22:18:16.367Z,1.75
2022-09-05T22:21:31.732Z,1.90
2022-09-05T22:23:44.385Z,2.10
2022-09-05T22:26:15.479Z,2.03
2022-09-05T22:28:49.021Z,2.10
2022-09-05T22:31:18.580Z,1.58
2022-09-05T22:33:50.849Z,1.65
2022-09-05T22:36:20.079Z,1.50
2022-09-05T22:38:48.809Z,1.65
2022-09-05T22:41:17.353Z,1.60
2022-09-05T22:43:47.675Z,1.42
2022-09-05T22:46:16.692Z,1.92
2022-09-05T22:48:45.304Z,1.90
2022-09-05T22:51:14.238Z,1.70
2022-09-05T22:53:42.767Z,2.17
2022-09-05T22:56:12.055Z,2.03
2022-09-05T22:58:44.514Z,1.85
2022-09-05T23:01:15.028Z,2.10
2022-09-05T23:03:43.829Z,2.00
2022-09-05T23:06:13.291Z,2.03
2022-09-05T23:08:41.874Z,1.75
2022-09-05T23:11:13.297Z,2.08
2022-09-05T23:13:42.631Z,1.73
2022-09-05T23:16:12.085Z,1.42
2022-09-05T23:18:42.761Z,1.98
2022-09-05T23:21:14.639Z,1.92
2022-09-05T23:23:43.921Z,1.88
2022-09-05T23:26:16.302Z,1.55
2022-09-05T23:28:45.350Z,1.60
2022-09-05T23:31:14.090Z,1.80
2022-09-05T23:33:44.459Z,1.90
2022-09-05T23:36:15.053Z,1.67
2022-09-05T23:38:44.866Z,1.60
2022-09-05T23:41:16.611Z,1.48
2022-09-05T23:43:45.175Z,1.73
2022-09-05T23:46:13.865Z,1.73
2022-09-05T23:48:44.640Z,1.50
2022-09-05T23:51:14.750Z,1.60
2022-09-05T23:53:43.795Z,1.83
2022-09-05T23:56:12.904Z,1.45
2022-09-05T23:58:41.481Z,1.55
